createdAt,value
2018-09-05T00:01:11.468Z,100.00
2018-09-05T00:03:46.073Z,100.00
2018-09-05T00:06:20.748Z,100.00
2018-09-05T00:08:55.360Z,100.00
2018-09-05T00:11:29.911Z,100.00
2018-09-05T00:14:04.492Z,100.00
2018-09-05T00:16:38.956Z,100.00
2018-09-05T00:19:13.550Z,100.00
2018-09-05T00:21:48.386Z,100.00
2018-09-05T00:24:23.008Z,99.43
2018-09-05T00:26:58.029Z,99.73
2018-09-05T00:29:32.489Z,98.89
2018-09-05T00:32:07.272Z,98.64
2018-09-05T00:34:41.920Z,98.16
2018-09-05T00:37:16.560Z,99.26
2018-09-05T00:39:51.309Z,99.46
2018-09-05T00:42:25.990Z,98.72
2018-09-05T00:45:00.640Z,98.26
2018-09-05T00:47:35.292Z,97.93
2018-09-05T00:50:10.152Z,98.22
2018-09-05T00:52:44.928Z,98.00
2018-09-05T00:55:19.547Z,98.07
2018-09-05T00:57:54.224Z,98.11
2018-09-05T01:00:28.817Z,98.71
2018-09-05T01:03:03.389Z,98.91
2018-09-05T01:05:38.096Z,99.10
2018-09-05T01:08:12.643Z,98.77
2018-09-05T01:10:47.259Z,96.17
2018-09-05T01:13:21.911Z,95.77
2018-09-05T01:15:56.532Z,94.71
2018-09-05T01:18:31.073Z,91.86
2018-09-05T01:21:06.121Z,89.30
2018-09-05T01:23:40.562Z,88.64
2018-09-05T01:26:15.256Z,88.20
2018-09-05T01:28:49.892Z,87.62
2018-09-05T01:31:24.509Z,88.62
2018-09-05T01:33:59.573Z,90.59
2018-09-05T01:36:34.098Z,91.21
2018-09-05T01:39:08.724Z,92.14
2018-09-05T01:41:43.282Z,93.24
2018-09-05T01:44:17.817Z,93.82
2018-09-05T01:46:52.549Z,94.81
2018-09-05T01:49:26.992Z,95.14
2018-09-05T01:52:01.908Z,95.83
2018-09-05T01:54:36.429Z,97.17
2018-09-05T01:57:11.257Z,97.45
2018-09-05T01:59:45.816Z,97.28
2018-09-05T02:02:20.349Z,98.07
2018-09-05T02:04:55.988Z,97.97
2018-09-05T02:07:30.424Z,94.83
2018-09-05T02:10:05.368Z,91.41
2018-09-05T02:12:40.024Z,90.75
2018-09-05T02:15:14.573Z,90.40
2018-09-05T02:17:49.084Z,88.14
2018-09-05T02:20:24.139Z,90.37
2018-09-05T02:22:58.769Z,89.89
2018-09-05T02:25:33.356Z,90.27
2018-09-05T02:28:08.240Z,90.15
2018-09-05T02:30:42.981Z,90.37
2018-09-05T02:33:17.459Z,88.67
2018-09-05T02:35:52.130Z,89.02
2018-09-05T02:38:26.788Z,89.90
2018-09-05T02:41:01.389Z,90.82
2018-09-05T02:43:41.262Z,91.12
2018-09-05T02:46:15.902Z,92.00
2018-09-05T02:48:50.465Z,93.36
2018-09-05T02:51:25.256Z,93.18
2018-09-05T02:54:01.975Z,92.59
2018-09-05T02:56:36.873Z,92.81
2018-09-05T03:02:16.004Z,92.75
2018-09-05T03:07:54.243Z,93.33
2018-09-05T03:10:28.764Z,92.55
2018-09-05T03:13:03.337Z,91.22
2018-09-05T03:15:38.064Z,92.28
2018-09-05T03:18:12.876Z,90.47
2018-09-05T03:20:47.411Z,88.68
2018-09-05T03:23:22.061Z,85.51
2018-09-05T03:26:29.373Z,89.30
2018-09-05T03:29:03.871Z,89.69
2018-09-05T03:31:38.259Z,90.54
2018-09-05T03:34:21.304Z,90.18
2018-09-05T03:36:55.987Z,90.83
2018-09-05T03:39:30.806Z,88.78
2018-09-05T03:42:08.585Z,87.71
2018-09-05T03:44:42.976Z,88.08
2018-09-05T03:47:17.664Z,87.70
2018-09-05T03:49:52.148Z,87.57
2018-09-05T03:52:26.553Z,88.92
2018-09-05T03:55:00.995Z,88.99
2018-09-05T03:57:35.390Z,86.55
2018-09-05T04:00:09.923Z,87.54
2018-09-05T04:02:44.224Z,88.76
2018-09-05T04:05:18.556Z,88.27
2018-09-05T04:07:52.904Z,88.21
2018-09-05T04:10:27.291Z,87.24
2018-09-05T04:13:01.711Z,89.57
2018-09-05T04:15:36.181Z,89.13
2018-09-05T04:18:10.644Z,88.39
2018-09-05T04:20:44.900Z,87.17
2018-09-05T04:23:19.189Z,85.70
2018-09-05T04:25:53.616Z,85.31
2018-09-05T04:28:28.007Z,86.08
2018-09-05T04:31:02.428Z,85.57
2018-09-05T04:33:36.804Z,84.28
2018-09-05T04:36:13.259Z,84.07
2018-09-05T04:38:47.752Z,83.30
2018-09-05T04:41:22.164Z,83.53
2018-09-05T04:46:56.673Z,84.28
2018-09-05T04:49:30.888Z,85.18
2018-09-05T04:52:05.124Z,84.23
2018-09-05T04:54:39.545Z,85.28
2018-09-05T04:57:13.916Z,84.20
2018-09-05T04:59:57.844Z,83.31
2018-09-05T05:02:38.655Z,82.44
2018-09-05T05:05:12.896Z,82.34
2018-09-05T05:07:47.310Z,82.20
2018-09-05T05:10:21.803Z,82.24
2018-09-05T05:12:56.296Z,82.96
2018-09-05T05:15:30.715Z,81.82
2018-09-05T05:18:05.113Z,82.63
2018-09-05T05:20:39.472Z,81.99
2018-09-05T05:23:14.035Z,80.46
2018-09-05T05:25:48.268Z,80.31
2018-09-05T05:28:22.667Z,80.56
2018-09-05T05:30:57.085Z,81.00
2018-09-05T05:33:31.440Z,80.08
2018-09-05T05:36:06.090Z,78.92
2018-09-05T05:38:40.779Z,77.08
2018-09-05T05:41:15.356Z,78.64
2018-09-05T05:43:49.851Z,75.26
2018-09-05T05:46:24.075Z,74.52
2018-09-05T05:48:58.536Z,74.30
2018-09-05T05:51:32.940Z,73.25
2018-09-05T05:54:07.813Z,73.42
2018-09-05T05:56:42.048Z,72.21
2018-09-05T05:59:16.287Z,67.91
2018-09-05T06:01:50.599Z,62.26
2018-09-05T06:04:24.952Z,61.07
2018-09-05T06:06:59.419Z,63.23
2018-09-05T06:09:34.103Z,65.10
2018-09-05T06:12:08.507Z,64.29
2018-09-05T06:14:42.891Z,64.57
2018-09-05T06:17:17.334Z,66.09
2018-09-05T06:19:52.020Z,64.63
2018-09-05T06:22:26.656Z,63.53
2018-09-05T06:25:05.019Z,64.30
2018-09-05T06:27:46.956Z,63.17
2018-09-05T06:33:20.588Z,61.48
2018-09-05T06:35:54.931Z,57.47
2018-09-05T06:38:29.332Z,51.66
2018-09-05T06:41:03.648Z,45.48
2018-09-05T06:43:38.043Z,41.17
2018-09-05T06:46:12.439Z,41.47
2018-09-05T06:48:46.658Z,38.94
2018-09-05T06:51:21.044Z,36.60
2018-09-05T06:53:56.055Z,34.24
2018-09-05T06:56:30.547Z,34.57
2018-09-05T06:59:04.900Z,33.73
2018-09-05T07:01:39.283Z,34.00
2018-09-05T07:04:14.236Z,31.39
2018-09-05T07:06:48.429Z,32.70
2018-09-05T07:09:22.841Z,33.67
2018-09-05T07:11:57.235Z,31.54
2018-09-05T07:14:31.858Z,31.86
2018-09-05T07:17:06.627Z,36.67
2018-09-05T07:19:40.845Z,40.74
2018-09-05T07:22:15.258Z,43.38
2018-09-05T07:24:49.871Z,46.66
2018-09-05T07:27:24.320Z,48.34
2018-09-05T07:29:58.811Z,49.68
2018-09-05T07:32:33.095Z,49.35
2018-09-05T07:35:07.411Z,48.68
2018-09-05T07:37:49.073Z,50.78
2018-09-05T07:40:23.440Z,50.18
2018-09-05T07:42:58.057Z,53.44
2018-09-05T07:45:32.911Z,52.26
2018-09-05T07:48:07.218Z,53.27
2018-09-05T07:50:41.510Z,51.45
2018-09-05T07:53:15.780Z,51.54
2018-09-05T07:55:50.145Z,52.32
2018-09-05T07:58:25.168Z,51.70
2018-09-05T08:00:59.469Z,56.15
2018-09-05T08:03:34.036Z,50.97
2018-09-05T08:06:08.753Z,52.98
2018-09-05T08:08:43.144Z,53.52
2018-09-05T08:11:17.772Z,48.58
2018-09-05T08:13:52.195Z,49.22
2018-09-05T08:16:26.448Z,57.11
2018-09-05T08:19:00.695Z,49.07
2018-09-05T08:21:35.040Z,47.90
2018-09-05T08:24:09.457Z,49.05
2018-09-05T08:26:44.096Z,51.01
2018-09-05T08:29:18.617Z,52.76
2018-09-05T08:31:53.057Z,49.22
2018-09-05T08:34:41.308Z,50.46
2018-09-05T08:37:15.879Z,49.29
2018-09-05T08:39:50.102Z,49.18
2018-09-05T08:42:24.671Z,48.98
2018-09-05T08:44:59.260Z,51.30
2018-09-05T08:47:33.605Z,51.13
2018-09-05T08:50:08.140Z,51.51
2018-09-05T08:52:42.495Z,49.75
2018-09-05T08:55:17.345Z,50.05
2018-09-05T08:57:51.507Z,50.15
2018-09-05T09:00:25.753Z,50.73
2018-09-05T09:03:00.451Z,50.48
2018-09-05T09:05:34.828Z,52.52
2018-09-05T09:08:09.460Z,50.83
2018-09-05T09:10:43.820Z,49.77
2018-09-05T09:13:18.276Z,50.48
2018-09-05T09:15:52.513Z,49.98
2018-09-05T09:18:26.908Z,49.34
2018-09-05T09:21:01.211Z,49.29
2018-09-05T09:23:35.631Z,49.50
2018-09-05T09:26:10.404Z,49.87
2018-09-05T09:28:44.720Z,48.54
2018-09-05T09:31:18.939Z,46.88
2018-09-05T09:33:53.255Z,47.44
2018-09-05T09:36:27.789Z,47.81
2018-09-05T09:39:02.048Z,49.12
2018-09-05T09:41:36.552Z,49.73
2018-09-05T09:44:11.874Z,49.17
2018-09-05T09:46:52.823Z,51.06
2018-09-05T09:49:27.657Z,51.16
2018-09-05T09:52:15.157Z,51.68
2018-09-05T09:54:50.964Z,51.83
2018-09-05T09:57:33.183Z,51.61
2018-09-05T10:00:08.084Z,52.38
2018-09-05T10:03:06.572Z,51.22
2018-09-05T10:05:47.020Z,51.40
2018-09-05T10:08:26.820Z,50.84
2018-09-05T10:11:05.813Z,50.56
2018-09-05T10:13:45.625Z,49.38
2018-09-05T10:16:25.550Z,50.75
2018-09-05T10:19:00.174Z,50.69
2018-09-05T10:21:34.660Z,50.80
2018-09-05T10:24:08.979Z,51.51
2018-09-05T10:26:43.844Z,52.75
2018-09-05T10:29:18.900Z,52.48
2018-09-05T10:31:53.403Z,51.50
2018-09-05T10:34:27.653Z,51.77
2018-09-05T10:37:02.555Z,49.53
2018-09-05T10:39:36.812Z,51.36
2018-09-05T10:42:11.212Z,48.86
2018-09-05T10:44:46.071Z,49.81
2018-09-05T10:47:22.107Z,49.82
2018-09-05T10:52:55.438Z,51.11
2018-09-05T10:55:29.860Z,50.31
2018-09-05T10:58:04.559Z,47.88
2018-09-05T11:00:38.899Z,47.22
2018-09-05T11:03:13.307Z,46.01
2018-09-05T11:05:47.895Z,44.95
2018-09-05T11:08:22.287Z,43.17
2018-09-05T11:10:57.036Z,43.76
2018-09-05T11:13:31.379Z,45.54
2018-09-05T11:16:05.806Z,46.98
2018-09-05T11:18:40.147Z,47.69
2018-09-05T11:21:14.411Z,48.13
2018-09-05T11:23:48.815Z,46.40
2018-09-05T11:26:23.235Z,46.42
2018-09-05T11:28:58.320Z,44.29
2018-09-05T11:31:32.464Z,43.74
2018-09-05T11:34:07.108Z,44.21
2018-09-05T11:36:41.543Z,43.18
2018-09-05T11:39:15.910Z,44.78
2018-09-05T11:41:50.479Z,40.82
2018-09-05T11:44:24.856Z,40.99
2018-09-05T11:46:59.352Z,41.90
2018-09-05T11:49:35.516Z,43.16
2018-09-05T11:52:10.380Z,40.38
2018-09-05T11:54:44.775Z,40.35
2018-09-05T11:57:19.257Z,39.86
2018-09-05T11:59:53.915Z,39.92
2018-09-05T12:02:28.307Z,41.54
2018-09-05T12:05:02.579Z,41.53
2018-09-05T12:07:36.976Z,40.73
2018-09-05T12:10:11.276Z,41.32
2018-09-05T12:12:45.627Z,41.18
2018-09-05T12:15:19.921Z,40.65
2018-09-05T12:17:54.574Z,42.78
2018-09-05T12:20:28.759Z,40.12
2018-09-05T12:23:03.203Z,40.09
2018-09-05T12:25:37.891Z,41.02
2018-09-05T12:28:12.327Z,40.58
2018-09-05T12:30:46.727Z,40.02
2018-09-05T12:33:21.107Z,41.35
2018-09-05T12:35:55.460Z,40.58
2018-09-05T12:38:31.921Z,38.46
2018-09-05T12:41:07.558Z,37.78
2018-09-05T12:43:42.129Z,36.44
2018-09-05T12:46:17.160Z,37.97
2018-09-05T12:48:57.771Z,37.61
2018-09-05T12:51:32.409Z,37.39
2018-09-05T12:54:07.541Z,36.64
2018-09-05T12:59:49.968Z,36.61
2018-09-05T13:02:24.552Z,37.14
2018-09-05T13:04:59.251Z,36.06
2018-09-05T13:07:33.889Z,37.44
2018-09-05T13:10:08.904Z,36.42
2018-09-05T13:12:45.196Z,38.12
2018-09-05T13:15:28.555Z,35.80
2018-09-05T13:18:15.116Z,37.87
2018-09-05T13:20:49.565Z,38.52
2018-09-05T13:26:35.932Z,37.01
2018-09-05T13:29:10.892Z,37.51
2018-09-05T13:31:45.670Z,36.41
2018-09-05T13:34:20.245Z,36.29
2018-09-05T13:36:54.826Z,35.64
2018-09-05T13:39:29.439Z,36.60
2018-09-05T13:42:03.946Z,36.66
2018-09-05T13:44:38.641Z,35.79
2018-09-05T13:47:13.154Z,36.38
2018-09-05T13:49:47.592Z,36.90
2018-09-05T13:52:22.027Z,36.02
2018-09-05T13:54:56.472Z,36.92
2018-09-05T13:57:31.149Z,36.73
2018-09-05T14:00:05.680Z,36.57
2018-09-05T14:02:40.090Z,36.27
2018-09-05T14:05:15.112Z,37.36
2018-09-05T14:07:49.573Z,38.44
2018-09-05T14:10:24.328Z,38.36
2018-09-05T14:12:58.789Z,40.18
2018-09-05T14:15:33.337Z,40.84
2018-09-05T14:18:07.997Z,39.53
2018-09-05T14:20:42.646Z,40.72
2018-09-05T14:23:17.248Z,39.71
2018-09-05T14:25:51.912Z,39.44
2018-09-05T14:28:26.567Z,40.27
2018-09-05T14:31:01.108Z,39.73
2018-09-05T14:33:35.540Z,39.64
2018-09-05T14:36:10.001Z,38.68
2018-09-05T14:38:45.031Z,37.42
2018-09-05T14:41:19.464Z,37.62
2018-09-05T14:43:53.901Z,35.58
2018-09-05T14:46:28.241Z,34.08
2018-09-05T14:49:02.797Z,33.08
2018-09-05T14:51:37.253Z,34.14
2018-09-05T14:54:11.727Z,32.54
2018-09-05T14:56:46.384Z,32.98
2018-09-05T14:59:21.216Z,31.79
2018-09-05T15:01:55.581Z,31.99
2018-09-05T15:04:30.179Z,31.74
2018-09-05T15:07:04.598Z,31.64
2018-09-05T15:09:39.288Z,31.84
2018-09-05T15:12:13.836Z,32.24
2018-09-05T15:14:48.320Z,33.57
2018-09-05T15:17:22.765Z,33.97
2018-09-05T15:19:57.436Z,35.07
2018-09-05T15:22:31.957Z,35.30
2018-09-05T15:25:06.813Z,37.04
2018-09-05T15:27:41.589Z,36.75
2018-09-05T15:30:16.333Z,36.16
2018-09-05T15:32:50.791Z,36.53
2018-09-05T15:35:25.440Z,35.79
2018-09-05T15:38:00.009Z,35.85
2018-09-05T15:40:34.599Z,35.40
2018-09-05T15:43:08.996Z,35.47
2018-09-05T15:45:43.494Z,36.57
2018-09-05T15:48:17.947Z,35.87
2018-09-05T15:50:52.384Z,36.81
2018-09-05T15:53:27.228Z,35.88
2018-09-05T15:56:01.677Z,37.67
2018-09-05T15:58:36.593Z,36.43
2018-09-05T16:01:15.579Z,36.35
2018-09-05T16:03:54.273Z,36.75
2018-09-05T16:06:29.240Z,37.49
2018-09-05T16:09:04.249Z,39.07
2018-09-05T16:11:38.900Z,39.67
2018-09-05T16:14:14.256Z,41.48
2018-09-05T16:16:48.915Z,41.99
2018-09-05T16:19:23.541Z,42.21
2018-09-05T16:21:58.183Z,43.28
2018-09-05T16:24:32.730Z,43.18
2018-09-05T16:27:07.841Z,43.28
2018-09-05T16:29:42.237Z,44.11
2018-09-05T16:32:16.679Z,43.81
2018-09-05T16:34:51.029Z,43.58
2018-09-05T16:37:25.620Z,45.20
2018-09-05T16:40:00.266Z,44.54
2018-09-05T16:42:34.772Z,44.13
2018-09-05T16:45:09.508Z,45.05
2018-09-05T16:47:44.308Z,44.54
2018-09-05T16:50:18.964Z,45.61
2018-09-05T16:52:53.702Z,45.56
2018-09-05T16:55:28.241Z,46.49
2018-09-05T16:58:02.733Z,46.06
2018-09-05T17:00:37.985Z,45.57
2018-09-05T17:03:12.697Z,46.00
2018-09-05T17:05:47.268Z,46.22
2018-09-05T17:08:21.668Z,47.09
2018-09-05T17:10:56.327Z,47.56
2018-09-05T17:13:30.989Z,46.19
2018-09-05T17:16:06.528Z,46.99
2018-09-05T17:18:41.317Z,46.87
2018-09-05T17:21:16.104Z,46.95
2018-09-05T17:24:02.661Z,46.74
2018-09-05T17:26:37.649Z,47.26
2018-09-05T17:29:12.376Z,47.97
2018-09-05T17:31:47.001Z,48.94
2018-09-05T17:34:21.704Z,48.82
2018-09-05T17:36:56.317Z,48.94
2018-09-05T17:39:31.045Z,47.75
2018-09-05T17:42:05.776Z,50.67
2018-09-05T17:44:40.420Z,52.39
2018-09-05T17:47:15.097Z,51.42
2018-09-05T17:49:49.841Z,49.60
2018-09-05T17:52:24.344Z,51.66
2018-09-05T17:54:58.881Z,52.42
2018-09-05T17:57:33.348Z,52.18
2018-09-05T18:00:08.180Z,53.48
2018-09-05T18:02:42.721Z,53.65
2018-09-05T18:05:17.209Z,52.36
2018-09-05T18:07:51.828Z,53.11
2018-09-05T18:10:26.485Z,54.71
2018-09-05T18:13:01.297Z,54.80
2018-09-05T18:15:35.970Z,55.16
2018-09-05T18:18:10.392Z,54.28
2018-09-05T18:20:44.902Z,53.53
2018-09-05T18:23:19.381Z,55.80
2018-09-05T18:25:53.820Z,54.65
2018-09-05T18:28:28.446Z,56.89
2018-09-05T18:31:02.955Z,55.71
2018-09-05T18:33:37.717Z,56.43
2018-09-05T18:36:12.270Z,56.28
2018-09-05T18:38:46.909Z,57.02
2018-09-05T18:41:21.537Z,55.04
2018-09-05T18:43:56.076Z,54.95
2018-09-05T18:46:30.960Z,54.90
2018-09-05T18:49:05.546Z,55.02
2018-09-05T18:51:40.036Z,52.50
2018-09-05T18:54:14.507Z,54.15
2018-09-05T18:56:48.965Z,51.90
2018-09-05T18:59:23.442Z,52.75
2018-09-05T19:01:58.147Z,51.43
2018-09-05T19:04:32.676Z,51.99
2018-09-05T19:07:07.335Z,51.52
2018-09-05T19:09:41.985Z,51.66
2018-09-05T19:12:16.592Z,52.39
2018-09-05T19:14:51.038Z,52.71
2018-09-05T19:17:25.670Z,53.34
2018-09-05T19:20:00.252Z,51.81
2018-09-05T19:22:34.830Z,51.32
2018-09-05T19:25:09.501Z,51.69
2018-09-05T19:27:44.051Z,51.00
2018-09-05T19:30:19.145Z,51.70
2018-09-05T19:32:53.521Z,52.08
2018-09-05T19:35:28.250Z,51.42
2018-09-05T19:38:02.701Z,51.88
2018-09-05T19:40:37.456Z,53.31
2018-09-05T19:43:12.108Z,55.25
2018-09-05T19:45:46.705Z,52.88
2018-09-05T19:48:21.188Z,54.75
2018-09-05T19:50:55.801Z,54.57
2018-09-05T19:53:30.417Z,55.90
2018-09-05T19:56:04.849Z,54.87
2018-09-05T19:58:43.577Z,56.05
2018-09-05T20:01:34.029Z,56.13
2018-09-05T20:04:08.664Z,55.13
2018-09-05T20:06:43.772Z,55.81
2018-09-05T20:09:18.373Z,55.32
2018-09-05T20:11:52.920Z,55.82
2018-09-05T20:14:27.905Z,56.68
2018-09-05T20:17:02.477Z,56.29
2018-09-05T20:19:37.163Z,57.36
2018-09-05T20:22:12.260Z,59.01
2018-09-05T20:24:46.908Z,58.55
2018-09-05T20:27:21.498Z,59.28
2018-09-05T20:29:56.640Z,60.55
2018-09-05T20:32:31.013Z,58.07
2018-09-05T20:35:05.641Z,58.44
2018-09-05T20:37:40.169Z,57.94
2018-09-05T20:40:14.720Z,56.12
2018-09-05T20:42:49.312Z,56.42
2018-09-05T20:45:23.853Z,56.74
2018-09-05T20:47:58.745Z,56.31
2018-09-05T20:50:33.329Z,54.27
2018-09-05T20:53:08.271Z,54.17
2018-09-05T20:55:42.920Z,53.87
2018-09-05T20:58:18.239Z,53.95
2018-09-05T21:00:52.729Z,57.24
2018-09-05T21:03:27.361Z,52.84
2018-09-05T21:06:24.441Z,53.34
2018-09-05T21:09:00.496Z,52.49
2018-09-05T21:11:35.090Z,53.10
2018-09-05T21:14:09.853Z,52.68
2018-09-05T21:16:44.566Z,53.30
2018-09-05T21:19:19.108Z,52.52
2018-09-05T21:21:54.045Z,52.83
2018-09-05T21:24:28.549Z,52.40
2018-09-05T21:27:03.073Z,53.34
2018-09-05T21:29:38.035Z,52.69
2018-09-05T21:32:12.604Z,52.38
2018-09-05T21:34:47.188Z,53.24
2018-09-05T21:37:21.720Z,53.12
2018-09-05T21:39:56.320Z,52.66
2018-09-05T21:42:30.902Z,52.95
2018-09-05T21:45:05.953Z,53.20
2018-09-05T21:47:40.513Z,53.06
2018-09-05T21:50:15.129Z,54.72
2018-09-05T21:52:50.347Z,55.20
2018-09-05T21:55:24.869Z,54.27
2018-09-05T21:58:00.050Z,55.24
2018-09-05T22:00:34.645Z,54.26
2018-09-05T22:03:09.253Z,54.87
2018-09-05T22:05:43.818Z,54.29
2018-09-05T22:08:18.264Z,53.38
2018-09-05T22:10:52.936Z,53.95
2018-09-05T22:13:27.511Z,54.16
2018-09-05T22:16:02.161Z,54.22
2018-09-05T22:18:36.898Z,53.97
2018-09-05T22:21:11.437Z,53.79
2018-09-05T22:23:46.384Z,55.95
2018-09-05T22:26:21.242Z,54.01
2018-09-05T22:28:55.684Z,54.28
2018-09-05T22:31:30.253Z,54.82
2018-09-05T22:34:04.812Z,55.46
2018-09-05T22:36:39.397Z,55.15
2018-09-05T22:39:13.880Z,55.38
2018-09-05T22:41:48.293Z,56.21
2018-09-05T22:44:34.176Z,56.16
2018-09-05T22:47:19.976Z,56.43
2018-09-05T22:50:11.210Z,56.50
2018-09-05T22:53:04.790Z,59.79
2018-09-05T22:55:55.217Z,62.07
2018-09-05T22:58:55.669Z,64.18
2018-09-05T23:02:16.393Z,65.92
2018-09-05T23:05:59.689Z,68.63
2018-09-05T23:08:38.475Z,69.74
2018-09-05T23:11:24.374Z,71.87
2018-09-05T23:15:11.152Z,72.55
2018-09-05T23:20:14.777Z,73.88
2018-09-05T23:23:00.694Z,77.33
2018-09-05T23:25:35.141Z,77.77
2018-09-05T23:28:09.645Z,79.63
2018-09-05T23:30:44.297Z,80.26
2018-09-05T23:33:18.842Z,79.39
2018-09-05T23:35:53.738Z,79.64
2018-09-05T23:38:28.728Z,80.30
2018-09-05T23:41:03.321Z,80.78
2018-09-05T23:43:37.778Z,80.86
2018-09-05T23:46:12.439Z,80.94
2018-09-05T23:48:47.034Z,81.25
2018-09-05T23:51:21.520Z,81.78
2018-09-05T23:53:56.367Z,81.26
2018-09-05T23:56:30.950Z,81.83
2018-09-05T23:59:06.486Z,81.74
